createdAt,value
2023-01-01T00:01:53.406Z,100284.91
2023-01-01T00:04:21.304Z,100293.56
2023-01-01T00:06:50.625Z,100298.81
2023-01-01T00:09:44.317Z,100294.31
2023-01-01T00:12:12.272Z,100302.59
2023-01-01T00:14:42.904Z,100310.69
2023-01-01T00:17:10.980Z,100309.22
2023-01-01T00:19:38.908Z,100308.63
2023-01-01T00:22:43.735Z,100322.22
2023-01-01T00:24:56.139Z,100306.31
2023-01-01T00:27:24.043Z,100306.59
2023-01-01T00:29:51.937Z,100310.09
2023-01-01T00:32:22.864Z,100311.91
2023-01-01T00:34:51.203Z,100303.13
2023-01-01T00:37:20.511Z,100312.75
2023-01-01T00:39:48.524Z,100307.16
2023-01-01T00:42:16.488Z,100323.25
2023-01-01T00:44:44.432Z,100307.16
2023-01-01T00:47:12.351Z,100309.75
2023-01-01T00:49:40.314Z,100319.44
2023-01-01T00:52:08.259Z,100313.19
2023-01-01T00:54:37.585Z,100308.69
2023-01-01T00:57:05.589Z,100319.44
2023-01-01T00:59:33.544Z,100309.56
2023-01-01T01:02:01.583Z,100319.44
2023-01-01T01:04:29.594Z,100304.59
2023-01-01T01:06:57.543Z,100309.91
2023-01-01T01:09:25.514Z,100320.75
2023-01-01T01:12:17.594Z,100320.84
2023-01-01T01:14:42.774Z,100324.53
2023-01-01T01:17:10.676Z,100324.53
2023-01-01T01:19:38.622Z,100340.34
2023-01-01T01:22:06.611Z,100337.50
2023-01-01T01:24:34.571Z,100340.75
2023-01-01T01:27:03.943Z,100335.34
2023-01-01T01:29:31.851Z,100342.13
2023-01-01T01:31:59.757Z,100326.09
2023-01-01T01:34:28.511Z,100338.34
2023-01-01T01:36:56.513Z,100340.41
2023-01-01T01:39:24.469Z,100347.38
2023-01-01T01:41:52.430Z,100346.09
2023-01-01T01:44:56.685Z,100357.25
2023-01-01T01:47:28.157Z,100363.09
2023-01-01T01:49:57.524Z,100367.50
2023-01-01T01:52:26.338Z,100368.59
2023-01-01T01:54:54.442Z,100377.44
2023-01-01T01:57:22.355Z,100361.78
2023-01-01T01:59:50.816Z,100374.84
2023-01-01T02:02:24.395Z,100368.91
2023-01-01T02:04:52.380Z,100368.91
2023-01-01T02:07:20.274Z,100380.28
2023-01-01T02:09:48.308Z,100374.34
2023-01-01T02:12:16.227Z,100372.63
2023-01-01T02:14:44.181Z,100377.72
2023-01-01T02:17:14.584Z,100370.13
2023-01-01T02:19:55.602Z,100380.38
2023-01-01T02:22:26.048Z,100378.53
2023-01-01T02:25:01.167Z,100380.53
2023-01-01T02:27:32.361Z,100383.19
2023-01-01T02:30:02.585Z,100380.63
2023-01-01T02:32:32.635Z,100397.94
2023-01-01T02:35:23.015Z,100391.94
2023-01-01T02:37:52.030Z,100399.84
2023-01-01T02:40:20.033Z,100402.50
2023-01-01T02:42:47.947Z,100408.00
2023-01-01T02:45:17.272Z,100413.59
2023-01-01T02:47:45.212Z,100409.19
2023-01-01T02:50:14.870Z,100419.94
2023-01-01T02:53:02.070Z,100412.03
2023-01-01T02:55:37.173Z,100419.31
2023-01-01T02:58:22.151Z,100423.84
2023-01-01T03:00:51.530Z,100413.53
2023-01-01T03:03:20.704Z,100427.38
2023-01-01T03:06:09.606Z,100426.50
2023-01-01T03:08:42.172Z,100432.06
2023-01-01T03:11:11.302Z,100427.63
2023-01-01T03:13:42.039Z,100424.97
2023-01-01T03:16:14.234Z,100418.91
2023-01-01T03:18:45.299Z,100427.69
2023-01-01T03:23:47.814Z,100410.34
2023-01-01T03:26:17.609Z,100412.75
2023-01-01T03:28:47.663Z,100417.84
2023-01-01T03:31:18.402Z,100405.47
2023-01-01T03:33:47.447Z,100407.09
2023-01-01T03:36:16.552Z,100403.47
2023-01-01T03:38:46.116Z,100392.16
2023-01-01T03:41:16.368Z,100395.59
2023-01-01T03:43:49.397Z,100369.41
2023-01-01T03:46:18.921Z,100415.31
2023-01-01T03:49:03.841Z,100416.00
2023-01-01T03:51:44.670Z,100405.38
2023-01-01T03:54:15.146Z,100410.53
2023-01-01T03:56:45.681Z,100415.53
2023-01-01T03:59:15.879Z,100411.75
2023-01-01T04:01:46.446Z,100409.66
2023-01-01T04:04:14.418Z,100416.34
2023-01-01T04:06:42.334Z,100422.19
2023-01-01T04:09:11.161Z,100425.09
2023-01-01T04:11:56.532Z,100425.34
2023-01-01T04:14:29.322Z,100423.28
2023-01-01T04:16:58.823Z,100416.56
2023-01-01T04:19:26.786Z,100422.97
2023-01-01T04:21:54.731Z,100430.63
2023-01-01T04:24:23.452Z,100439.53
2023-01-01T04:26:51.457Z,100447.06
2023-01-01T04:29:19.580Z,100443.13
2023-01-01T04:31:47.511Z,100461.75
2023-01-01T04:34:16.793Z,100452.31
2023-01-01T04:36:44.727Z,100446.34
2023-01-01T04:39:12.747Z,100449.88
2023-01-01T04:41:40.690Z,100452.88
2023-01-01T04:44:08.626Z,100480.94
2023-01-01T04:46:36.590Z,100487.16
2023-01-01T04:49:04.677Z,100489.00
2023-01-01T04:51:34.065Z,100486.44
2023-01-01T04:54:02.401Z,100485.88
2023-01-01T04:56:30.580Z,100495.22
2023-01-01T04:58:58.738Z,100505.06
2023-01-01T05:01:27.915Z,100494.31
2023-01-01T05:03:57.322Z,100507.63
2023-01-01T05:06:25.591Z,100513.63
2023-01-01T05:08:55.688Z,100518.03
2023-01-01T05:11:24.450Z,100522.41
2023-01-01T05:13:53.184Z,100530.25
2023-01-01T05:16:22.395Z,100521.16
2023-01-01T05:18:50.535Z,100518.63
2023-01-01T05:21:19.421Z,100515.84
2023-01-01T05:23:47.358Z,100516.84
2023-01-01T05:26:17.465Z,100528.34
2023-01-01T05:28:45.476Z,100519.66
2023-01-01T05:31:14.527Z,100530.00
2023-01-01T05:33:43.073Z,100520.16
2023-01-01T05:36:12.055Z,100536.03
2023-01-01T05:38:39.931Z,100531.56
2023-01-01T05:41:08.574Z,100543.88
2023-01-01T05:43:37.961Z,100538.53
2023-01-01T05:46:06.805Z,100542.91
2023-01-01T05:48:36.593Z,100536.81
2023-01-01T05:51:05.326Z,100524.28
2023-01-01T05:53:33.263Z,100528.50
2023-01-01T05:56:01.203Z,100527.72
2023-01-01T05:58:29.481Z,100533.22
2023-01-01T06:00:58.919Z,100543.78
2023-01-01T06:03:26.831Z,100535.94
2023-01-01T06:05:54.805Z,100550.06
2023-01-01T06:08:22.762Z,100558.09
2023-01-01T06:10:50.723Z,100560.53
2023-01-01T06:13:18.617Z,100567.59
2023-01-01T06:15:46.535Z,100553.28
2023-01-01T06:18:15.805Z,100571.94
2023-01-01T06:20:43.697Z,100569.47
2023-01-01T06:23:11.662Z,100564.16
2023-01-01T06:25:39.585Z,100573.06
2023-01-01T06:28:07.554Z,100572.13
2023-01-01T06:30:35.540Z,100572.19
2023-01-01T06:33:03.515Z,100593.41
2023-01-01T06:35:32.868Z,100590.03
2023-01-01T06:38:00.852Z,100580.25
2023-01-01T06:40:28.864Z,100591.81
2023-01-01T06:42:56.777Z,100587.53
2023-01-01T06:45:24.652Z,100590.19
2023-01-01T06:47:52.629Z,100590.03
2023-01-01T06:50:20.575Z,100590.13
2023-01-01T06:52:49.856Z,100594.47
2023-01-01T06:55:17.926Z,100593.56
2023-01-01T06:57:45.836Z,100597.09
2023-01-01T07:00:15.418Z,100605.94
2023-01-01T07:02:43.502Z,100603.34
2023-01-01T07:05:11.489Z,100609.44
2023-01-01T07:07:39.683Z,100606.78
2023-01-01T07:10:10.011Z,100596.31
2023-01-01T07:12:37.967Z,100593.41
2023-01-01T07:15:06.735Z,100594.25
2023-01-01T07:17:34.650Z,100591.69
2023-01-01T07:20:02.581Z,100597.00
2023-01-01T07:22:30.521Z,100590.13
2023-01-01T07:24:58.434Z,100582.25
2023-01-01T07:27:27.717Z,100581.47
2023-01-01T07:29:55.698Z,100584.28
2023-01-01T07:32:23.623Z,100582.56
2023-01-01T07:34:51.568Z,100583.50
2023-01-01T07:37:20.526Z,100588.03
2023-01-01T07:39:48.475Z,100590.56
2023-01-01T07:42:16.369Z,100594.22
2023-01-01T07:44:45.641Z,100609.28
2023-01-01T07:47:18.595Z,100616.47
2023-01-01T07:49:46.476Z,100613.72
2023-01-01T07:52:14.431Z,100614.41
2023-01-01T07:54:42.352Z,100605.66
2023-01-01T07:57:10.296Z,100577.25
2023-01-01T07:59:38.222Z,100603.88
2023-01-01T08:02:07.642Z,100612.53
2023-01-01T08:04:35.657Z,100602.69
2023-01-01T08:07:03.535Z,100593.13
2023-01-01T08:09:31.613Z,100587.81
2023-01-01T08:11:59.515Z,100587.59
2023-01-01T08:14:27.433Z,100582.50
2023-01-01T08:16:55.351Z,100557.63
2023-01-01T08:19:24.636Z,100593.09
2023-01-01T08:21:52.632Z,100600.09
2023-01-01T08:24:20.538Z,100604.50
2023-01-01T08:26:49.731Z,100593.22
2023-01-01T08:29:17.731Z,100611.50
2023-01-01T08:31:45.728Z,100621.09
2023-01-01T08:34:13.721Z,100615.53
2023-01-01T08:36:43.108Z,100630.81
2023-01-01T08:39:11.604Z,100622.97
2023-01-01T08:41:39.807Z,100637.78
2023-01-01T08:44:07.809Z,100642.16
2023-01-01T08:46:35.775Z,100641.16
2023-01-01T08:49:03.705Z,100658.78
2023-01-01T08:51:31.677Z,100655.97
2023-01-01T08:54:00.970Z,100651.44
2023-01-01T08:56:28.901Z,100653.16
2023-01-01T08:59:03.528Z,100658.19
2023-01-01T09:01:32.538Z,100639.00
2023-01-01T09:04:00.496Z,100660.97
2023-01-01T09:06:28.897Z,100662.53
2023-01-01T09:08:56.852Z,100670.34
2023-01-01T09:11:26.827Z,100674.53
2023-01-01T09:13:55.023Z,100682.97
2023-01-01T09:16:23.049Z,100679.16
2023-01-01T09:18:51.101Z,100691.16
2023-01-01T09:21:19.017Z,100698.69
2023-01-01T09:23:46.989Z,100704.56
2023-01-01T09:26:15.058Z,100712.84
2023-01-01T09:28:44.392Z,100722.06
2023-01-01T09:31:12.387Z,100730.13
2023-01-01T09:33:40.889Z,100724.31
2023-01-01T09:36:28.067Z,100735.28
2023-01-01T09:38:56.466Z,100745.22
2023-01-01T09:41:28.379Z,100743.94
2023-01-01T09:44:01.480Z,100722.28
2023-01-01T09:46:31.855Z,100728.53
2023-01-01T09:49:02.726Z,100729.16
2023-01-01T09:51:33.181Z,100729.94
2023-01-01T09:54:02.557Z,100707.53
2023-01-01T09:56:31.069Z,100740.53
2023-01-01T09:59:00.800Z,100721.00
2023-01-01T10:01:35.789Z,100725.28
2023-01-01T10:04:09.169Z,100731.59
2023-01-01T10:06:38.484Z,100726.25
2023-01-01T10:09:10.916Z,100738.47
2023-01-01T10:11:44.023Z,100734.69
2023-01-01T10:14:17.916Z,100736.44
2023-01-01T10:16:47.122Z,100733.50
2023-01-01T10:19:23.052Z,100727.44
2023-01-01T10:21:51.301Z,100737.56
2023-01-01T10:24:29.186Z,100744.50
2023-01-01T10:26:57.193Z,100744.19
2023-01-01T10:29:36.142Z,100742.22
2023-01-01T10:32:07.426Z,100733.31
2023-01-01T10:34:36.947Z,100742.75
2023-01-01T10:37:05.772Z,100754.97
2023-01-01T10:39:33.687Z,100733.88
2023-01-01T10:42:01.637Z,100752.16
2023-01-01T10:44:32.563Z,100756.47
2023-01-01T10:47:05.365Z,100759.03
2023-01-01T10:49:33.473Z,100750.97
2023-01-01T10:52:02.814Z,100744.81
2023-01-01T10:54:34.764Z,100744.50
2023-01-01T10:57:14.122Z,100753.28
2023-01-01T10:59:49.820Z,100752.25
2023-01-01T11:02:22.375Z,100748.63
2023-01-01T11:04:50.723Z,100750.25
2023-01-01T11:07:27.842Z,100746.56
2023-01-01T11:10:03.710Z,100746.81
2023-01-01T11:15:27.481Z,100749.91
2023-01-01T11:18:04.266Z,100738.38
2023-01-01T11:20:32.268Z,100736.47
2023-01-01T11:23:00.541Z,100729.28
2023-01-01T11:25:29.430Z,100726.97
2023-01-01T11:28:18.090Z,100729.22
2023-01-01T11:30:58.701Z,100730.09
2023-01-01T11:33:26.938Z,100720.44
2023-01-01T11:35:56.189Z,100733.53
2023-01-01T11:38:29.777Z,100722.25
2023-01-01T11:41:02.578Z,100728.97
2023-01-01T11:43:39.462Z,100724.66
2023-01-01T11:46:10.889Z,100727.22
2023-01-01T11:48:42.910Z,100707.16
2023-01-01T11:51:11.907Z,100715.78
2023-01-01T11:53:41.404Z,100711.97
2023-01-01T11:56:11.567Z,100702.13
2023-01-01T11:58:42.765Z,100703.63
2023-01-01T12:01:14.916Z,100704.38
2023-01-01T12:03:44.053Z,100688.34
2023-01-01T12:06:14.041Z,100689.13
2023-01-01T12:08:45.494Z,100702.28
2023-01-01T12:11:17.924Z,100706.78
2023-01-01T12:13:48.199Z,100697.03
2023-01-01T12:16:19.365Z,100704.13
2023-01-01T12:18:48.738Z,100699.59
2023-01-01T12:21:18.837Z,100703.16
2023-01-01T12:23:46.759Z,100698.66
2023-01-01T12:26:19.205Z,100697.69
2023-01-01T12:29:11.027Z,100689.69
2023-01-01T12:31:43.553Z,100678.91
2023-01-01T12:34:13.381Z,100683.22
2023-01-01T12:36:44.594Z,100677.78
2023-01-01T12:40:17.036Z,100687.06
2023-01-01T12:42:53.825Z,100672.25
2023-01-01T12:45:44.206Z,100680.31
2023-01-01T12:48:28.092Z,100673.16
2023-01-01T12:51:05.017Z,100675.38
2023-01-01T12:53:36.104Z,100676.94
2023-01-01T12:56:15.149Z,100678.59
2023-01-01T12:58:50.558Z,100673.59
2023-01-01T13:01:21.047Z,100664.44
2023-01-01T13:03:51.843Z,100694.75
2023-01-01T13:06:28.182Z,100684.75
2023-01-01T13:08:58.042Z,100690.28
2023-01-01T13:11:27.395Z,100671.22
2023-01-01T13:13:55.318Z,100661.50
2023-01-01T13:16:36.989Z,100651.81
2023-01-01T13:19:06.327Z,100664.75
2023-01-01T13:21:34.203Z,100666.84
2023-01-01T13:24:20.409Z,100664.16
2023-01-01T13:26:49.209Z,100661.84
2023-01-01T13:29:45.221Z,100671.16
2023-01-01T13:32:13.726Z,100675.47
2023-01-01T13:35:05.926Z,100680.78
2023-01-01T13:37:56.102Z,100670.06
2023-01-01T13:40:52.981Z,100656.69
2023-01-01T13:43:31.110Z,100671.31
2023-01-01T13:46:12.968Z,100670.00
2023-01-01T13:49:07.830Z,100673.06
2023-01-01T13:55:00.556Z,100670.25
2023-01-01T13:57:38.124Z,100674.94
2023-01-01T14:00:12.605Z,100659.25
2023-01-01T14:02:43.178Z,100681.47
2023-01-01T14:05:15.993Z,100672.63
2023-01-01T14:07:52.954Z,100665.66
2023-01-01T14:10:25.156Z,100667.44
2023-01-01T14:12:54.030Z,100668.03
2023-01-01T14:15:27.140Z,100644.97
2023-01-01T14:17:56.428Z,100669.94
2023-01-01T14:20:25.517Z,100662.88
2023-01-01T14:22:53.636Z,100658.56
2023-01-01T14:25:26.650Z,100662.28
2023-01-01T14:27:55.249Z,100663.41
2023-01-01T14:30:23.344Z,100658.19
2023-01-01T14:32:57.467Z,100647.59
2023-01-01T14:35:25.562Z,100648.41
2023-01-01T14:37:53.593Z,100647.75
2023-01-01T14:40:28.314Z,100652.34
2023-01-01T14:42:58.708Z,100636.69
2023-01-01T14:45:27.092Z,100640.19
2023-01-01T14:47:55.977Z,100638.38
2023-01-01T14:50:26.690Z,100639.25
2023-01-01T14:52:56.981Z,100634.00
2023-01-01T14:55:26.289Z,100635.22
2023-01-01T14:57:57.706Z,100639.81
2023-01-01T15:00:26.682Z,100630.06
2023-01-01T15:02:54.661Z,100624.91
2023-01-01T15:05:34.833Z,100629.06
2023-01-01T15:08:04.163Z,100642.25
2023-01-01T15:10:34.804Z,100645.03
2023-01-01T15:13:06.402Z,100654.16
2023-01-01T15:15:39.953Z,100665.06
2023-01-01T15:18:08.073Z,100673.63
2023-01-01T15:20:37.360Z,100662.47
2023-01-01T15:23:09.951Z,100645.31
2023-01-01T15:25:39.938Z,100664.09
2023-01-01T15:28:07.871Z,100659.84
2023-01-01T15:30:36.263Z,100661.63
2023-01-01T15:33:07.652Z,100664.16
2023-01-01T15:35:37.693Z,100664.59
2023-01-01T15:38:10.524Z,100653.53
2023-01-01T15:40:40.628Z,100658.00
2023-01-01T15:43:17.562Z,100656.66
2023-01-01T15:45:52.760Z,100677.75
2023-01-01T15:48:22.923Z,100656.53
2023-01-01T15:51:01.545Z,100656.44
2023-01-01T15:53:30.201Z,100653.06
2023-01-01T15:56:01.174Z,100646.31
2023-01-01T15:58:33.868Z,100657.31
2023-01-01T16:01:03.474Z,100665.38
2023-01-01T16:03:31.931Z,100658.25
2023-01-01T16:05:59.864Z,100660.91
2023-01-01T16:08:28.179Z,100664.53
2023-01-01T16:10:56.170Z,100658.34
2023-01-01T16:13:25.830Z,100678.78
2023-01-01T16:15:54.639Z,100660.19
2023-01-01T16:18:22.535Z,100658.53
2023-01-01T16:20:50.635Z,100640.22
2023-01-01T16:23:18.764Z,100654.31
2023-01-01T16:25:46.686Z,100658.09
2023-01-01T16:28:14.779Z,100648.25
2023-01-01T16:30:44.312Z,100656.34
2023-01-01T16:33:14.316Z,100657.13
2023-01-01T16:35:42.274Z,100657.03
2023-01-01T16:38:10.506Z,100647.72
2023-01-01T16:40:38.512Z,100666.00
2023-01-01T16:43:12.526Z,100648.25
2023-01-01T16:45:40.620Z,100670.22
2023-01-01T16:48:09.939Z,100669.34
2023-01-01T16:50:37.939Z,100625.22
2023-01-01T16:53:05.840Z,100659.56
2023-01-01T16:55:36.976Z,100633.16
2023-01-01T16:58:46.855Z,100678.34
2023-01-01T17:00:54.014Z,100670.38
2023-01-01T17:03:23.362Z,100668.66
2023-01-01T17:05:51.378Z,100668.66
2023-01-01T17:08:19.318Z,100666.00
2023-01-01T17:10:47.858Z,100679.47
2023-01-01T17:13:16.044Z,100678.69
2023-01-01T17:15:44.152Z,100672.47
2023-01-01T17:18:12.545Z,100658.72
2023-01-01T17:20:41.907Z,100671.56
2023-01-01T17:23:09.909Z,100674.13
2023-01-01T17:25:38.220Z,100685.44
2023-01-01T17:28:06.260Z,100678.34
2023-01-01T17:30:34.191Z,100679.13
2023-01-01T17:33:02.079Z,100681.81
2023-01-01T17:35:33.321Z,100677.66
2023-01-01T17:38:02.791Z,100693.28
2023-01-01T17:40:36.574Z,100704.78
2023-01-01T17:43:04.984Z,100669.50
2023-01-01T17:45:32.973Z,100699.53
2023-01-01T17:48:00.884Z,100696.97
2023-01-01T17:50:28.905Z,100695.13
2023-01-01T17:52:56.821Z,100690.66
2023-01-01T17:55:26.127Z,100691.69
2023-01-01T17:57:54.058Z,100698.75
2023-01-01T18:00:21.991Z,100683.78
2023-01-01T18:02:50.042Z,100689.09
2023-01-01T18:05:18.287Z,100695.41
2023-01-01T18:07:46.211Z,100689.44
2023-01-01T18:10:14.126Z,100695.31
2023-01-01T18:12:43.481Z,100698.34
2023-01-01T18:15:11.903Z,100699.00
2023-01-01T18:17:39.886Z,100694.59
2023-01-01T18:20:09.197Z,100681.72
2023-01-01T18:22:42.927Z,100706.97
2023-01-01T18:25:11.420Z,100704.31
2023-01-01T18:27:39.335Z,100700.88
2023-01-01T18:30:10.281Z,100714.28
2023-01-01T18:32:38.240Z,100725.56
2023-01-01T18:35:07.053Z,100725.56
2023-01-01T18:37:36.732Z,100729.00
2023-01-01T18:40:10.553Z,100723.66
2023-01-01T18:42:44.765Z,100721.97
2023-01-01T18:45:18.609Z,100711.53
2023-01-01T18:47:46.839Z,100713.25
2023-01-01T18:50:19.062Z,100717.78
2023-01-01T18:52:47.894Z,100716.09
2023-01-01T18:55:18.349Z,100720.00
2023-01-01T18:57:49.312Z,100719.03
2023-01-01T19:00:24.257Z,100721.00
2023-01-01T19:02:56.039Z,100719.44
2023-01-01T19:05:27.181Z,100725.69
2023-01-01T19:07:58.928Z,100726.66
2023-01-01T19:10:27.515Z,100729.53
2023-01-01T19:12:56.271Z,100735.97
2023-01-01T19:15:25.878Z,100697.50
2023-01-01T19:17:54.522Z,100739.91
2023-01-01T19:20:23.690Z,100732.97
2023-01-01T19:22:51.737Z,100719.78
2023-01-01T19:25:36.360Z,100719.00
2023-01-01T19:28:26.959Z,100726.22
2023-01-01T19:30:56.524Z,100720.31
2023-01-01T19:33:24.510Z,100730.03
2023-01-01T19:35:52.828Z,100737.22
2023-01-01T19:38:20.860Z,100735.44
2023-01-01T19:40:48.832Z,100739.88
2023-01-01T19:43:16.737Z,100744.13
2023-01-01T19:45:44.671Z,100742.31
2023-01-01T19:48:14.185Z,100733.47
2023-01-01T19:50:42.076Z,100728.53
2023-01-01T19:53:10.118Z,100739.88
2023-01-01T19:55:40.092Z,100732.84
2023-01-01T19:58:07.984Z,100734.72
2023-01-01T20:00:36.180Z,100707.25
2023-01-01T20:03:42.880Z,100708.13
2023-01-01T20:05:53.375Z,100720.53
2023-01-01T20:08:22.362Z,100728.59
2023-01-01T20:10:50.492Z,100732.19
2023-01-01T20:13:18.468Z,100746.31
2023-01-01T20:15:46.989Z,100739.41
2023-01-01T20:18:15.049Z,100742.19
2023-01-01T20:21:03.245Z,100745.88
2023-01-01T20:23:32.682Z,100751.50
2023-01-01T20:26:00.573Z,100764.88
2023-01-01T20:28:45.787Z,100758.91
2023-01-01T20:31:13.762Z,100764.53
2023-01-01T20:33:41.792Z,100772.50
2023-01-01T20:36:27.601Z,100763.75
2023-01-01T20:38:56.917Z,100761.91
2023-01-01T20:41:24.991Z,100759.25
2023-01-01T20:43:53.289Z,100756.47
2023-01-01T20:46:21.352Z,100760.66
2023-01-01T20:48:49.322Z,100752.72
2023-01-01T20:51:17.338Z,100749.84
2023-01-01T20:53:45.252Z,100761.44
2023-01-01T20:56:14.598Z,100772.91
2023-01-01T20:58:48.107Z,100759.00
2023-01-01T21:01:18.154Z,100764.16
2023-01-01T21:03:46.300Z,100763.31
2023-01-01T21:06:18.435Z,100764.22
2023-01-01T21:08:49.869Z,100770.44
2023-01-01T21:11:19.124Z,100776.84
2023-01-01T21:13:47.097Z,100781.50
2023-01-01T21:16:17.444Z,100784.28
2023-01-01T21:18:45.506Z,100778.09
2023-01-01T21:21:19.623Z,100771.06
2023-01-01T21:23:47.571Z,100771.16
2023-01-01T21:26:16.871Z,100774.59
2023-01-01T21:28:46.207Z,100777.25
2023-01-01T21:31:14.831Z,100767.41
2023-01-01T21:33:43.242Z,100764.78
2023-01-01T21:36:17.595Z,100767.41
2023-01-01T21:38:45.564Z,100764.56
2023-01-01T21:41:16.624Z,100776.84
2023-01-01T21:43:47.943Z,100764.38
2023-01-01T21:46:24.600Z,100774.09
2023-01-01T21:48:56.662Z,100780.91
2023-01-01T21:51:25.655Z,100781.69
2023-01-01T21:53:54.185Z,100786.81
2023-01-01T21:56:28.791Z,100790.34
2023-01-01T21:59:19.327Z,100784.97
2023-01-01T22:01:47.345Z,100802.34
2023-01-01T22:04:22.427Z,100797.91
2023-01-01T22:06:51.851Z,100802.31
2023-01-01T22:09:22.295Z,100814.75
2023-01-01T22:11:50.961Z,100800.47
2023-01-01T22:14:20.878Z,100815.31
2023-01-01T22:16:48.956Z,100819.72
2023-01-01T22:19:18.009Z,100814.53
2023-01-01T22:21:45.951Z,100822.44
2023-01-01T22:24:31.808Z,100820.56
2023-01-01T22:27:03.471Z,100832.00
2023-01-01T22:29:33.487Z,100821.28
2023-01-01T22:32:03.692Z,100821.44
2023-01-01T22:34:32.293Z,100820.56
2023-01-01T22:37:00.234Z,100824.31
2023-01-01T22:39:30.582Z,100819.13
2023-01-01T22:41:58.598Z,100828.97
2023-01-01T22:44:27.161Z,100809.41
2023-01-01T22:46:58.729Z,100826.59
2023-01-01T22:49:35.233Z,100827.41
2023-01-01T22:52:03.206Z,100822.44
2023-01-01T22:54:31.140Z,100849.47
2023-01-01T22:56:59.164Z,100848.47
2023-01-01T22:59:27.140Z,100846.63
2023-01-01T23:01:56.425Z,100848.13
2023-01-01T23:04:24.344Z,100849.00
2023-01-01T23:06:52.513Z,100851.50
2023-01-01T23:09:20.528Z,100855.13
2023-01-01T23:11:48.518Z,100864.63
2023-01-01T23:14:38.567Z,100870.72
2023-01-01T23:17:08.607Z,100873.59
2023-01-01T23:19:36.540Z,100873.81
2023-01-01T23:22:04.696Z,100865.34
2023-01-01T23:24:32.593Z,100872.66
2023-01-01T23:27:00.735Z,100866.03
2023-01-01T23:29:29.841Z,100865.88
2023-01-01T23:31:57.918Z,100869.50
2023-01-01T23:34:27.211Z,100874.66
2023-01-01T23:36:55.093Z,100866.84
2023-01-01T23:39:22.942Z,100872.00
2023-01-01T23:41:51.601Z,100880.84
2023-01-01T23:44:19.482Z,100881.31
2023-01-01T23:46:47.459Z,100890.78
2023-01-01T23:49:15.423Z,100895.00
2023-01-01T23:51:44.679Z,100900.19
2023-01-01T23:54:12.603Z,100903.69
2023-01-01T23:56:40.520Z,100893.13
2023-01-01T23:59:08.438Z,100901.97
